sensor_id;sensor_type;location;lat;lon;timestamp;P1;durP1;ratioP1;P2;durP2;ratioP2
6523;SDS011;3295;38.928;-77.052;2023-07-09T00:01:38;7.57;;;4.40;;
6523;SDS011;3295;38.928;-77.052;2023-07-09T00:04:07;8.77;;;4.40;;
6523;SDS011;3295;38.928;-77.052;2023-07-09T00:06:34;9.80;;;4.90;;
6523;SDS011;3295;38.928;-77.052;2023-07-09T00:09:02;8.33;;;4.77;;
6523;SDS011;3295;38.928;-77.052;2023-07-09T00:11:31;7.80;;;4.43;;
6523;SDS011;3295;38.928;-77.052;2023-07-09T00:13:58;9.43;;;4.97;;
6523;SDS011;3295;38.928;-77.052;2023-07-09T00:16:25;8.60;;;4.90;;
6523;SDS011;3295;38.928;-77.052;2023-07-09T00:18:53;7.77;;;4.60;;
6523;SDS011;3295;38.928;-77.052;2023-07-09T00:21:20;7.83;;;4.23;;
6523;SDS011;3295;38.928;-77.052;2023-07-09T00:23:48;7.07;;;4.37;;
6523;SDS011;3295;38.928;-77.052;2023-07-09T00:26:16;8.07;;;4.70;;
6523;SDS011;3295;38.928;-77.052;2023-07-09T00:28:44;7.77;;;4.73;;
6523;SDS011;3295;38.928;-77.052;2023-07-09T00:31:14;9.33;;;4.60;;
6523;SDS011;3295;38.928;-77.052;2023-07-09T00:33:41;8.07;;;4.70;;
6523;SDS011;3295;38.928;-77.052;2023-07-09T00:36:11;8.23;;;4.70;;
6523;SDS011;3295;38.928;-77.052;2023-07-09T00:38:40;7.20;;;4.30;;
6523;SDS011;3295;38.928;-77.052;2023-07-09T00:41:14;7.57;;;4.60;;
6523;SDS011;3295;38.928;-77.052;2023-07-09T00:43:43;7.70;;;4.73;;
6523;SDS011;3295;38.928;-77.052;2023-07-09T00:46:14;8.37;;;4.50;;
6523;SDS011;3295;38.928;-77.052;2023-07-09T00:48:41;8.10;;;4.80;;
6523;SDS011;3295;38.928;-77.052;2023-07-09T00:51:09;7.87;;;4.90;;
6523;SDS011;3295;38.928;-77.052;2023-07-09T00:53:38;8.90;;;4.60;;
6523;SDS011;3295;38.928;-77.052;2023-07-09T00:56:12;12.13;;;4.73;;
6523;SDS011;3295;38.928;-77.052;2023-07-09T00:58:41;8.90;;;4.47;;
6523;SDS011;3295;38.928;-77.052;2023-07-09T01:01:16;9.23;;;5.00;;
6523;SDS011;3295;38.928;-77.052;2023-07-09T01:03:45;8.73;;;4.90;;
6523;SDS011;3295;38.928;-77.052;2023-07-09T01:06:12;7.70;;;4.60;;
6523;SDS011;3295;38.928;-77.052;2023-07-09T01:08:42;12.93;;;5.77;;
6523;SDS011;3295;38.928;-77.052;2023-07-09T01:11:14;9.90;;;5.40;;
6523;SDS011;3295;38.928;-77.052;2023-07-09T01:13:46;9.57;;;5.23;;
6523;SDS011;3295;38.928;-77.052;2023-07-09T01:16:15;10.30;;;5.87;;
6523;SDS011;3295;38.928;-77.052;2023-07-09T01:18:42;11.60;;;5.87;;
6523;SDS011;3295;38.928;-77.052;2023-07-09T01:21:11;8.80;;;5.03;;
6523;SDS011;3295;38.928;-77.052;2023-07-09T01:23:41;9.67;;;5.20;;
6523;SDS011;3295;38.928;-77.052;2023-07-09T01:26:09;10.37;;;5.67;;
6523;SDS011;3295;38.928;-77.052;2023-07-09T01:28:37;9.70;;;5.40;;
6523;SDS011;3295;38.928;-77.052;2023-07-09T01:31:09;10.20;;;5.17;;
6523;SDS011;3295;38.928;-77.052;2023-07-09T01:33:37;9.57;;;5.30;;
6523;SDS011;3295;38.928;-77.052;2023-07-09T01:36:04;9.90;;;5.50;;
6523;SDS011;3295;38.928;-77.052;2023-07-09T01:38:33;8.90;;;4.77;;
6523;SDS011;3295;38.928;-77.052;2023-07-09T01:41:01;8.60;;;4.77;;
6523;SDS011;3295;38.928;-77.052;2023-07-09T01:43:29;7.07;;;4.70;;
6523;SDS011;3295;38.928;-77.052;2023-07-09T01:45:56;8.07;;;4.67;;
6523;SDS011;3295;38.928;-77.052;2023-07-09T01:48:24;9.00;;;4.70;;
6523;SDS011;3295;38.928;-77.052;2023-07-09T01:50:51;9.10;;;4.87;;
6523;SDS011;3295;38.928;-77.052;2023-07-09T01:53:19;8.20;;;4.87;;
6523;SDS011;3295;38.928;-77.052;2023-07-09T01:55:50;8.63;;;4.73;;
6523;SDS011;3295;38.928;-77.052;2023-07-09T01:58:17;9.27;;;5.00;;
6523;SDS011;3295;38.928;-77.052;2023-07-09T02:00:44;8.47;;;4.70;;
6523;SDS011;3295;38.928;-77.052;2023-07-09T02:03:12;7.50;;;4.63;;
6523;SDS011;3295;38.928;-77.052;2023-07-09T02:05:40;9.07;;;5.10;;
6523;SDS011;3295;38.928;-77.052;2023-07-09T02:08:07;7.87;;;4.93;;
6523;SDS011;3295;38.928;-77.052;2023-07-09T02:10:34;8.23;;;4.67;;
6523;SDS011;3295;38.928;-77.052;2023-07-09T02:13:03;8.77;;;4.70;;
6523;SDS011;3295;38.928;-77.052;2023-07-09T02:15:30;8.13;;;4.40;;
6523;SDS011;3295;38.928;-77.052;2023-07-09T02:17:57;12.03;;;5.27;;
6523;SDS011;3295;38.928;-77.052;2023-07-09T02:20:27;8.97;;;5.00;;
6523;SDS011;3295;38.928;-77.052;2023-07-09T02:22:54;8.57;;;4.83;;
6523;SDS011;3295;38.928;-77.052;2023-07-09T02:25:21;8.43;;;5.00;;
6523;SDS011;3295;38.928;-77.052;2023-07-09T02:27:48;8.57;;;4.90;;
6523;SDS011;3295;38.928;-77.052;2023-07-09T02:30:17;12.23;;;5.80;;
6523;SDS011;3295;38.928;-77.052;2023-07-09T02:32:44;13.03;;;6.83;;
6523;SDS011;3295;38.928;-77.052;2023-07-09T02:35:11;13.70;;;7.20;;
6523;SDS011;3295;38.928;-77.052;2023-07-09T02:37:38;16.43;;;8.70;;
6523;SDS011;3295;38.928;-77.052;2023-07-09T02:40:07;15.67;;;8.23;;
6523;SDS011;3295;38.928;-77.052;2023-07-09T02:42:34;16.10;;;8.07;;
6523;SDS011;3295;38.928;-77.052;2023-07-09T02:45:02;11.10;;;6.30;;
6523;SDS011;3295;38.928;-77.052;2023-07-09T02:47:31;9.83;;;5.90;;
6523;SDS011;3295;38.928;-77.052;2023-07-09T02:49:58;13.00;;;6.97;;
6523;SDS011;3295;38.928;-77.052;2023-07-09T02:52:25;13.10;;;7.50;;
6523;SDS011;3295;38.928;-77.052;2023-07-09T02:54:53;16.13;;;8.33;;
6523;SDS011;3295;38.928;-77.052;2023-07-09T02:57:20;15.63;;;8.47;;
6523;SDS011;3295;38.928;-77.052;2023-07-09T02:59:47;18.40;;;8.83;;
6523;SDS011;3295;38.928;-77.052;2023-07-09T03:02:14;20.33;;;9.83;;
6523;SDS011;3295;38.928;-77.052;2023-07-09T03:04:43;16.03;;;9.27;;
6523;SDS011;3295;38.928;-77.052;2023-07-09T03:07:10;17.73;;;8.73;;
6523;SDS011;3295;38.928;-77.052;2023-07-09T03:09:37;17.83;;;8.93;;
6523;SDS011;3295;38.928;-77.052;2023-07-09T03:12:05;15.00;;;7.67;;
6523;SDS011;3295;38.928;-77.052;2023-07-09T03:14:31;14.80;;;7.53;;
6523;SDS011;3295;38.928;-77.052;2023-07-09T03:16:58;12.17;;;6.60;;
6523;SDS011;3295;38.928;-77.052;2023-07-09T03:19:26;15.27;;;5.80;;
6523;SDS011;3295;38.928;-77.052;2023-07-09T03:21:54;9.73;;;5.53;;
6523;SDS011;3295;38.928;-77.052;2023-07-09T03:24:21;10.00;;;5.77;;
6523;SDS011;3295;38.928;-77.052;2023-07-09T03:26:48;10.83;;;6.20;;
6523;SDS011;3295;38.928;-77.052;2023-07-09T03:29:16;8.67;;;5.00;;
6523;SDS011;3295;38.928;-77.052;2023-07-09T03:31:43;10.60;;;5.50;;
6523;SDS011;3295;38.928;-77.052;2023-07-09T03:34:10;10.17;;;5.73;;
6523;SDS011;3295;38.928;-77.052;2023-07-09T03:36:37;12.93;;;5.53;;
6523;SDS011;3295;38.928;-77.052;2023-07-09T03:39:06;8.73;;;5.10;;
6523;SDS011;3295;38.928;-77.052;2023-07-09T03:41:33;10.20;;;5.70;;
6523;SDS011;3295;38.928;-77.052;2023-07-09T03:44:00;9.23;;;4.90;;
6523;SDS011;3295;38.928;-77.052;2023-07-09T03:46:28;9.57;;;5.23;;
6523;SDS011;3295;38.928;-77.052;2023-07-09T03:48:57;9.43;;;4.77;;
6523;SDS011;3295;38.928;-77.052;2023-07-09T03:51:24;8.97;;;5.07;;
6523;SDS011;3295;38.928;-77.052;2023-07-09T03:53:51;8.80;;;5.10;;
6523;SDS011;3295;38.928;-77.052;2023-07-09T03:56:20;7.23;;;4.57;;
6523;SDS011;3295;38.928;-77.052;2023-07-09T03:58:47;9.13;;;5.10;;
6523;SDS011;3295;38.928;-77.052;2023-07-09T04:01:14;8.83;;;4.67;;
6523;SDS011;3295;38.928;-77.052;2023-07-09T04:03:42;7.80;;;4.80;;
6523;SDS011;3295;38.928;-77.052;2023-07-09T04:06:09;8.37;;;4.33;;
6523;SDS011;3295;38.928;-77.052;2023-07-09T04:08:36;8.53;;;4.97;;
6523;SDS011;3295;38.928;-77.052;2023-07-09T04:11:05;7.90;;;4.33;;
6523;SDS011;3295;38.928;-77.052;2023-07-09T04:13:33;11.33;;;5.17;;
6523;SDS011;3295;38.928;-77.052;2023-07-09T04:16:00;7.00;;;4.30;;
6523;SDS011;3295;38.928;-77.052;2023-07-09T04:18:28;9.00;;;4.70;;
6523;SDS011;3295;38.928;-77.052;2023-07-09T04:20:55;10.07;;;4.70;;
6523;SDS011;3295;38.928;-77.052;2023-07-09T04:23:22;8.10;;;4.67;;
6523;SDS011;3295;38.928;-77.052;2023-07-09T04:25:49;8.10;;;4.47;;
6523;SDS011;3295;38.928;-77.052;2023-07-09T04:28:17;7.90;;;4.53;;
6523;SDS011;3295;38.928;-77.052;2023-07-09T04:30:49;7.47;;;4.27;;
6523;SDS011;3295;38.928;-77.052;2023-07-09T04:33:16;8.67;;;5.07;;
6523;SDS011;3295;38.928;-77.052;2023-07-09T04:35:44;7.90;;;4.60;;
6523;SDS011;3295;38.928;-77.052;2023-07-09T04:38:11;9.00;;;4.50;;
6523;SDS011;3295;38.928;-77.052;2023-07-09T04:40:39;9.53;;;4.90;;
6523;SDS011;3295;38.928;-77.052;2023-07-09T04:43:06;9.60;;;5.10;;
6523;SDS011;3295;38.928;-77.052;2023-07-09T04:45:33;10.47;;;5.40;;
6523;SDS011;3295;38.928;-77.052;2023-07-09T04:48:01;10.87;;;5.43;;
6523;SDS011;3295;38.928;-77.052;2023-07-09T04:50:29;9.53;;;4.60;;
6523;SDS011;3295;38.928;-77.052;2023-07-09T04:52:56;10.00;;;5.10;;
6523;SDS011;3295;38.928;-77.052;2023-07-09T04:55:23;7.90;;;5.00;;
6523;SDS011;3295;38.928;-77.052;2023-07-09T04:57:52;11.07;;;4.67;;
6523;SDS011;3295;38.928;-77.052;2023-07-09T05:00:19;8.23;;;4.90;;
6523;SDS011;3295;38.928;-77.052;2023-07-09T05:02:46;9.73;;;5.67;;
6523;SDS011;3295;38.928;-77.052;2023-07-09T05:05:15;7.50;;;4.47;;
6523;SDS011;3295;38.928;-77.052;2023-07-09T05:07:42;8.93;;;4.90;;
6523;SDS011;3295;38.928;-77.052;2023-07-09T05:10:09;8.17;;;5.07;;
6523;SDS011;3295;38.928;-77.052;2023-07-09T05:12:46;8.70;;;4.77;;
6523;SDS011;3295;38.928;-77.052;2023-07-09T05:15:13;9.80;;;4.93;;
6523;SDS011;3295;38.928;-77.052;2023-07-09T05:17:40;8.63;;;4.90;;
6523;SDS011;3295;38.928;-77.052;2023-07-09T05:20:08;7.90;;;4.83;;
6523;SDS011;3295;38.928;-77.052;2023-07-09T05:22:37;9.53;;;4.87;;
6523;SDS011;3295;38.928;-77.052;2023-07-09T05:25:04;11.60;;;5.13;;
6523;SDS011;3295;38.928;-77.052;2023-07-09T05:27:31;10.10;;;4.93;;
6523;SDS011;3295;38.928;-77.052;2023-07-09T05:29:59;9.37;;;4.97;;
6523;SDS011;3295;38.928;-77.052;2023-07-09T05:32:26;9.07;;;4.70;;
6523;SDS011;3295;38.928;-77.052;2023-07-09T05:34:53;9.93;;;4.70;;
6523;SDS011;3295;38.928;-77.052;2023-07-09T05:37:20;8.67;;;5.00;;
6523;SDS011;3295;38.928;-77.052;2023-07-09T05:39:49;9.33;;;4.83;;
6523;SDS011;3295;38.928;-77.052;2023-07-09T05:42:16;10.27;;;4.60;;
6523;SDS011;3295;38.928;-77.052;2023-07-09T05:44:43;8.37;;;4.57;;
6523;SDS011;3295;38.928;-77.052;2023-07-09T05:47:10;10.50;;;5.00;;
6523;SDS011;3295;38.928;-77.052;2023-07-09T05:49:37;8.17;;;4.77;;
6523;SDS011;3295;38.928;-77.052;2023-07-09T05:52:05;8.67;;;4.57;;
6523;SDS011;3295;38.928;-77.052;2023-07-09T05:54:32;12.10;;;5.63;;
6523;SDS011;3295;38.928;-77.052;2023-07-09T05:57:01;9.23;;;4.90;;
6523;SDS011;3295;38.928;-77.052;2023-07-09T05:59:28;9.07;;;5.23;;
6523;SDS011;3295;38.928;-77.052;2023-07-09T06:01:55;9.80;;;5.00;;
6523;SDS011;3295;38.928;-77.052;2023-07-09T06:04:22;9.60;;;5.03;;
6523;SDS011;3295;38.928;-77.052;2023-07-09T06:06:50;9.53;;;5.17;;
6523;SDS011;3295;38.928;-77.052;2023-07-09T06:09:17;7.33;;;4.47;;
6523;SDS011;3295;38.928;-77.052;2023-07-09T06:11:44;10.50;;;5.47;;
6523;SDS011;3295;38.928;-77.052;2023-07-09T06:14:13;11.13;;;4.87;;
6523;SDS011;3295;38.928;-77.052;2023-07-09T06:16:42;11.80;;;5.13;;
6523;SDS011;3295;38.928;-77.052;2023-07-09T06:19:09;11.00;;;5.30;;
6523;SDS011;3295;38.928;-77.052;2023-07-09T06:21:36;10.43;;;5.03;;
6523;SDS011;3295;38.928;-77.052;2023-07-09T06:24:06;9.33;;;5.00;;
6523;SDS011;3295;38.928;-77.052;2023-07-09T06:26:34;9.33;;;5.03;;
6523;SDS011;3295;38.928;-77.052;2023-07-09T06:29:01;8.40;;;5.00;;
6523;SDS011;3295;38.928;-77.052;2023-07-09T06:31:29;9.83;;;5.27;;
6523;SDS011;3295;38.928;-77.052;2023-07-09T06:33:57;9.37;;;5.17;;
6523;SDS011;3295;38.928;-77.052;2023-07-09T06:36:24;9.57;;;5.07;;
6523;SDS011;3295;38.928;-77.052;2023-07-09T06:38:51;8.17;;;4.90;;
6523;SDS011;3295;38.928;-77.052;2023-07-09T06:41:18;8.33;;;4.83;;
6523;SDS011;3295;38.928;-77.052;2023-07-09T06:43:46;7.93;;;4.73;;
6523;SDS011;3295;38.928;-77.052;2023-07-09T06:46:13;9.03;;;4.97;;
6523;SDS011;3295;38.928;-77.052;2023-07-09T06:48:42;10.77;;;5.20;;
6523;SDS011;3295;38.928;-77.052;2023-07-09T06:51:09;8.53;;;4.80;;
6523;SDS011;3295;38.928;-77.052;2023-07-09T06:53:37;8.13;;;4.47;;
6523;SDS011;3295;38.928;-77.052;2023-07-09T06:56:04;10.77;;;4.83;;
6523;SDS011;3295;38.928;-77.052;2023-07-09T06:58:32;10.10;;;4.70;;
6523;SDS011;3295;38.928;-77.052;2023-07-09T07:01:00;9.47;;;4.97;;
6523;SDS011;3295;38.928;-77.052;2023-07-09T07:03:28;9.07;;;4.90;;
6523;SDS011;3295;38.928;-77.052;2023-07-09T07:05:57;9.10;;;5.07;;
6523;SDS011;3295;38.928;-77.052;2023-07-09T07:08:25;8.80;;;4.63;;
6523;SDS011;3295;38.928;-77.052;2023-07-09T07:10:54;9.00;;;4.90;;
6523;SDS011;3295;38.928;-77.052;2023-07-09T07:13:27;9.90;;;4.93;;
6523;SDS011;3295;38.928;-77.052;2023-07-09T07:15:54;9.40;;;5.17;;
6523;SDS011;3295;38.928;-77.052;2023-07-09T07:18:21;7.80;;;4.57;;
6523;SDS011;3295;38.928;-77.052;2023-07-09T07:20:49;7.23;;;4.40;;
6523;SDS011;3295;38.928;-77.052;2023-07-09T07:23:17;8.77;;;4.50;;
6523;SDS011;3295;38.928;-77.052;2023-07-09T07:25:45;18.77;;;4.73;;
6523;SDS011;3295;38.928;-77.052;2023-07-09T07:28:12;10.53;;;5.17;;
6523;SDS011;3295;38.928;-77.052;2023-07-09T07:30:39;8.57;;;5.07;;
6523;SDS011;3295;38.928;-77.052;2023-07-09T07:33:07;9.80;;;4.93;;
6523;SDS011;3295;38.928;-77.052;2023-07-09T07:35:34;9.07;;;4.40;;
6523;SDS011;3295;38.928;-77.052;2023-07-09T07:38:01;8.53;;;4.73;;
6523;SDS011;3295;38.928;-77.052;2023-07-09T07:40:30;10.30;;;4.97;;
6523;SDS011;3295;38.928;-77.052;2023-07-09T07:42:57;13.87;;;4.80;;
6523;SDS011;3295;38.928;-77.052;2023-07-09T07:45:24;8.43;;;5.13;;
6523;SDS011;3295;38.928;-77.052;2023-07-09T07:47:51;8.03;;;4.60;;
6523;SDS011;3295;38.928;-77.052;2023-07-09T07:50:18;8.63;;;5.00;;
6523;SDS011;3295;38.928;-77.052;2023-07-09T07:52:46;9.73;;;4.97;;
6523;SDS011;3295;38.928;-77.052;2023-07-09T07:55:13;9.27;;;4.83;;
6523;SDS011;3295;38.928;-77.052;2023-07-09T07:57:42;10.47;;;4.90;;
6523;SDS011;3295;38.928;-77.052;2023-07-09T08:00:10;9.20;;;5.40;;
6523;SDS011;3295;38.928;-77.052;2023-07-09T08:02:37;11.07;;;5.23;;
6523;SDS011;3295;38.928;-77.052;2023-07-09T08:05:04;9.13;;;4.83;;
6523;SDS011;3295;38.928;-77.052;2023-07-09T08:07:32;10.60;;;4.93;;
6523;SDS011;3295;38.928;-77.052;2023-07-09T08:09:59;10.03;;;5.00;;
6523;SDS011;3295;38.928;-77.052;2023-07-09T08:12:26;8.97;;;4.90;;
6523;SDS011;3295;38.928;-77.052;2023-07-09T08:14:55;9.23;;;4.47;;
6523;SDS011;3295;38.928;-77.052;2023-07-09T08:17:22;10.70;;;5.30;;
6523;SDS011;3295;38.928;-77.052;2023-07-09T08:19:49;9.43;;;4.80;;
6523;SDS011;3295;38.928;-77.052;2023-07-09T08:22:17;10.23;;;5.63;;
6523;SDS011;3295;38.928;-77.052;2023-07-09T08:24:45;9.07;;;4.87;;
6523;SDS011;3295;38.928;-77.052;2023-07-09T08:27:13;10.30;;;5.43;;
6523;SDS011;3295;38.928;-77.052;2023-07-09T08:29:40;9.77;;;5.30;;
6523;SDS011;3295;38.928;-77.052;2023-07-09T08:32:10;9.57;;;5.57;;
6523;SDS011;3295;38.928;-77.052;2023-07-09T08:34:37;10.17;;;5.53;;
6523;SDS011;3295;38.928;-77.052;2023-07-09T08:37:05;10.57;;;5.23;;
6523;SDS011;3295;38.928;-77.052;2023-07-09T08:39:32;8.63;;;5.00;;
6523;SDS011;3295;38.928;-77.052;2023-07-09T08:42:00;8.07;;;4.70;;
6523;SDS011;3295;38.928;-77.052;2023-07-09T08:44:41;10.13;;;5.13;;
6523;SDS011;3295;38.928;-77.052;2023-07-09T08:47:13;10.47;;;5.03;;
6523;SDS011;3295;38.928;-77.052;2023-07-09T08:49:43;8.13;;;4.97;;
6523;SDS011;3295;38.928;-77.052;2023-07-09T08:52:14;11.40;;;5.67;;
6523;SDS011;3295;38.928;-77.052;2023-07-09T08:54:42;8.20;;;4.70;;
6523;SDS011;3295;38.928;-77.052;2023-07-09T08:57:14;9.03;;;4.73;;
6523;SDS011;3295;38.928;-77.052;2023-07-09T08:59:45;11.37;;;5.10;;
6523;SDS011;3295;38.928;-77.052;2023-07-09T09:02:16;10.20;;;5.17;;
6523;SDS011;3295;38.928;-77.052;2023-07-09T09:04:47;9.53;;;4.83;;
6523;SDS011;3295;38.928;-77.052;2023-07-09T09:07:16;9.27;;;5.30;;
6523;SDS011;3295;38.928;-77.052;2023-07-09T09:09:47;8.97;;;4.93;;
6523;SDS011;3295;38.928;-77.052;2023-07-09T09:12:28;12.00;;;5.97;;
6523;SDS011;3295;38.928;-77.052;2023-07-09T09:14:58;8.97;;;5.20;;
6523;SDS011;3295;38.928;-77.052;2023-07-09T09:17:28;10.63;;;5.47;;
6523;SDS011;3295;38.928;-77.052;2023-07-09T09:19:56;10.23;;;5.80;;
6523;SDS011;3295;38.928;-77.052;2023-07-09T09:22:24;10.17;;;5.27;;
6523;SDS011;3295;38.928;-77.052;2023-07-09T09:25:03;9.60;;;5.30;;
6523;SDS011;3295;38.928;-77.052;2023-07-09T09:27:32;9.47;;;5.00;;
6523;SDS011;3295;38.928;-77.052;2023-07-09T09:29:59;10.47;;;5.30;;
6523;SDS011;3295;38.928;-77.052;2023-07-09T09:32:29;9.80;;;5.40;;
6523;SDS011;3295;38.928;-77.052;2023-07-09T09:34:58;8.83;;;4.97;;
6523;SDS011;3295;38.928;-77.052;2023-07-09T09:37:31;10.93;;;5.60;;
6523;SDS011;3295;38.928;-77.052;2023-07-09T09:39:59;15.47;;;5.50;;
6523;SDS011;3295;38.928;-77.052;2023-07-09T09:42:27;10.13;;;5.30;;
6523;SDS011;3295;38.928;-77.052;2023-07-09T09:45:03;10.80;;;5.47;;
6523;SDS011;3295;38.928;-77.052;2023-07-09T09:47:36;9.83;;;5.03;;
6523;SDS011;3295;38.928;-77.052;2023-07-09T09:50:03;10.07;;;5.67;;
6523;SDS011;3295;38.928;-77.052;2023-07-09T09:52:30;8.50;;;4.93;;
6523;SDS011;3295;38.928;-77.052;2023-07-09T09:55:02;10.30;;;5.00;;
6523;SDS011;3295;38.928;-77.052;2023-07-09T09:57:30;9.00;;;4.57;;
6523;SDS011;3295;38.928;-77.052;2023-07-09T09:59:57;9.97;;;5.50;;
6523;SDS011;3295;38.928;-77.052;2023-07-09T10:02:25;9.43;;;5.37;;
6523;SDS011;3295;38.928;-77.052;2023-07-09T10:05:04;10.47;;;5.53;;
6523;SDS011;3295;38.928;-77.052;2023-07-09T10:07:34;10.47;;;5.37;;
6523;SDS011;3295;38.928;-77.052;2023-07-09T10:10:03;8.77;;;5.10;;
6523;SDS011;3295;38.928;-77.052;2023-07-09T10:12:36;9.00;;;5.13;;
6523;SDS011;3295;38.928;-77.052;2023-07-09T10:15:11;8.57;;;5.10;;
6523;SDS011;3295;38.928;-77.052;2023-07-09T10:17:42;10.90;;;5.03;;
6523;SDS011;3295;38.928;-77.052;2023-07-09T10:20:18;8.53;;;4.70;;
6523;SDS011;3295;38.928;-77.052;2023-07-09T10:22:49;11.53;;;5.80;;
6523;SDS011;3295;38.928;-77.052;2023-07-09T10:25:30;10.67;;;5.40;;
6523;SDS011;3295;38.928;-77.052;2023-07-09T10:28:09;9.50;;;4.93;;
6523;SDS011;3295;38.928;-77.052;2023-07-09T10:30:41;10.50;;;5.90;;
6523;SDS011;3295;38.928;-77.052;2023-07-09T10:33:11;9.50;;;5.63;;
6523;SDS011;3295;38.928;-77.052;2023-07-09T10:35:44;11.07;;;6.00;;
6523;SDS011;3295;38.928;-77.052;2023-07-09T10:38:18;9.27;;;5.17;;
6523;SDS011;3295;38.928;-77.052;2023-07-09T10:40:47;10.27;;;5.37;;
6523;SDS011;3295;38.928;-77.052;2023-07-09T10:43:18;11.10;;;5.40;;
6523;SDS011;3295;38.928;-77.052;2023-07-09T10:45:47;10.33;;;5.73;;
6523;SDS011;3295;38.928;-77.052;2023-07-09T10:48:16;9.77;;;5.37;;
6523;SDS011;3295;38.928;-77.052;2023-07-09T10:50:47;11.67;;;5.97;;
6523;SDS011;3295;38.928;-77.052;2023-07-09T10:53:16;10.80;;;6.30;;
6523;SDS011;3295;38.928;-77.052;2023-07-09T10:55:52;10.87;;;5.87;;
6523;SDS011;3295;38.928;-77.052;2023-07-09T10:58:27;11.57;;;6.73;;
6523;SDS011;3295;38.928;-77.052;2023-07-09T11:00:54;12.13;;;6.10;;
6523;SDS011;3295;38.928;-77.052;2023-07-09T11:03:24;14.00;;;6.13;;
6523;SDS011;3295;38.928;-77.052;2023-07-09T11:05:57;11.00;;;5.90;;
6523;SDS011;3295;38.928;-77.052;2023-07-09T11:08:25;10.70;;;6.03;;
6523;SDS011;3295;38.928;-77.052;2023-07-09T11:10:56;12.80;;;6.23;;
6523;SDS011;3295;38.928;-77.052;2023-07-09T11:13:26;14.20;;;6.63;;
6523;SDS011;3295;38.928;-77.052;2023-07-09T11:15:56;15.20;;;6.60;;
6523;SDS011;3295;38.928;-77.052;2023-07-09T11:18:24;11.53;;;6.07;;
6523;SDS011;3295;38.928;-77.052;2023-07-09T11:20:58;10.60;;;5.97;;
6523;SDS011;3295;38.928;-77.052;2023-07-09T11:23:26;10.80;;;5.33;;
6523;SDS011;3295;38.928;-77.052;2023-07-09T11:26:01;9.97;;;5.07;;
6523;SDS011;3295;38.928;-77.052;2023-07-09T11:28:32;11.07;;;6.13;;
6523;SDS011;3295;38.928;-77.052;2023-07-09T11:31:04;11.40;;;6.20;;
6523;SDS011;3295;38.928;-77.052;2023-07-09T11:33:32;8.70;;;5.20;;
6523;SDS011;3295;38.928;-77.052;2023-07-09T11:36:08;9.87;;;6.03;;
6523;SDS011;3295;38.928;-77.052;2023-07-09T11:38:39;12.03;;;6.40;;
6523;SDS011;3295;38.928;-77.052;2023-07-09T11:43:48;10.27;;;5.53;;
6523;SDS011;3295;38.928;-77.052;2023-07-09T11:46:17;11.90;;;6.00;;
6523;SDS011;3295;38.928;-77.052;2023-07-09T11:48:45;11.93;;;6.00;;
6523;SDS011;3295;38.928;-77.052;2023-07-09T11:51:15;10.07;;;5.57;;
6523;SDS011;3295;38.928;-77.052;2023-07-09T11:53:44;9.70;;;5.30;;
6523;SDS011;3295;38.928;-77.052;2023-07-09T11:56:12;9.00;;;5.70;;
6523;SDS011;3295;38.928;-77.052;2023-07-09T11:58:47;11.87;;;5.83;;
6523;SDS011;3295;38.928;-77.052;2023-07-09T12:01:15;13.17;;;6.60;;
6523;SDS011;3295;38.928;-77.052;2023-07-09T12:03:44;11.03;;;5.90;;
6523;SDS011;3295;38.928;-77.052;2023-07-09T12:06:16;11.13;;;5.57;;
6523;SDS011;3295;38.928;-77.052;2023-07-09T12:08:44;13.43;;;5.60;;
6523;SDS011;3295;38.928;-77.052;2023-07-09T12:11:19;13.20;;;6.53;;
6523;SDS011;3295;38.928;-77.052;2023-07-09T12:13:46;11.73;;;5.93;;
6523;SDS011;3295;38.928;-77.052;2023-07-09T12:16:24;10.50;;;5.63;;
6523;SDS011;3295;38.928;-77.052;2023-07-09T12:18:51;10.47;;;5.30;;
6523;SDS011;3295;38.928;-77.052;2023-07-09T12:21:20;9.57;;;5.43;;
6523;SDS011;3295;38.928;-77.052;2023-07-09T12:23:48;10.07;;;5.53;;
6523;SDS011;3295;38.928;-77.052;2023-07-09T12:26:16;11.27;;;5.57;;
6523;SDS011;3295;38.928;-77.052;2023-07-09T12:28:49;10.07;;;5.40;;
6523;SDS011;3295;38.928;-77.052;2023-07-09T12:31:16;11.93;;;5.40;;
6523;SDS011;3295;38.928;-77.052;2023-07-09T12:33:47;10.47;;;5.40;;
6523;SDS011;3295;38.928;-77.052;2023-07-09T12:36:15;8.07;;;5.17;;
6523;SDS011;3295;38.928;-77.052;2023-07-09T12:38:48;8.67;;;5.10;;
6523;SDS011;3295;38.928;-77.052;2023-07-09T12:41:18;10.23;;;5.60;;
6523;SDS011;3295;38.928;-77.052;2023-07-09T12:43:46;10.07;;;5.60;;
6523;SDS011;3295;38.928;-77.052;2023-07-09T12:46:13;9.90;;;4.87;;
6523;SDS011;3295;38.928;-77.052;2023-07-09T12:48:40;9.33;;;5.27;;
6523;SDS011;3295;38.928;-77.052;2023-07-09T12:51:08;8.10;;;4.97;;
6523;SDS011;3295;38.928;-77.052;2023-07-09T12:53:35;11.27;;;5.87;;
6523;SDS011;3295;38.928;-77.052;2023-07-09T12:56:07;9.97;;;5.13;;
6523;SDS011;3295;38.928;-77.052;2023-07-09T12:58:37;8.73;;;5.20;;
6523;SDS011;3295;38.928;-77.052;2023-07-09T13:01:05;10.33;;;5.23;;
6523;SDS011;3295;38.928;-77.052;2023-07-09T13:03:33;8.87;;;5.27;;
6523;SDS011;3295;38.928;-77.052;2023-07-09T13:06:01;10.60;;;4.93;;
6523;SDS011;3295;38.928;-77.052;2023-07-09T13:08:30;8.13;;;4.73;;
6523;SDS011;3295;38.928;-77.052;2023-07-09T13:10:57;8.53;;;4.97;;
6523;SDS011;3295;38.928;-77.052;2023-07-09T13:13:27;7.97;;;4.73;;
6523;SDS011;3295;38.928;-77.052;2023-07-09T13:15:55;9.77;;;5.03;;
6523;SDS011;3295;38.928;-77.052;2023-07-09T13:18:24;8.63;;;5.10;;
6523;SDS011;3295;38.928;-77.052;2023-07-09T13:20:52;9.80;;;5.50;;
6523;SDS011;3295;38.928;-77.052;2023-07-09T13:23:21;9.57;;;5.40;;
6523;SDS011;3295;38.928;-77.052;2023-07-09T13:25:49;7.67;;;4.63;;
6523;SDS011;3295;38.928;-77.052;2023-07-09T13:28:17;7.83;;;4.57;;
6523;SDS011;3295;38.928;-77.052;2023-07-09T13:30:46;9.60;;;5.40;;
6523;SDS011;3295;38.928;-77.052;2023-07-09T13:33:14;8.57;;;5.07;;
6523;SDS011;3295;38.928;-77.052;2023-07-09T13:35:43;10.27;;;5.57;;
6523;SDS011;3295;38.928;-77.052;2023-07-09T13:38:13;11.63;;;6.17;;
6523;SDS011;3295;38.928;-77.052;2023-07-09T13:40:41;9.73;;;5.43;;
6523;SDS011;3295;38.928;-77.052;2023-07-09T13:43:11;10.00;;;5.63;;
6523;SDS011;3295;38.928;-77.052;2023-07-09T13:45:39;9.37;;;5.57;;
6523;SDS011;3295;38.928;-77.052;2023-07-09T13:48:10;7.97;;;4.60;;
6523;SDS011;3295;38.928;-77.052;2023-07-09T13:50:38;9.47;;;4.90;;
6523;SDS011;3295;38.928;-77.052;2023-07-09T13:53:09;7.50;;;4.63;;
6523;SDS011;3295;38.928;-77.052;2023-07-09T13:55:36;8.53;;;4.87;;
6523;SDS011;3295;38.928;-77.052;2023-07-09T13:58:03;7.53;;;4.90;;
6523;SDS011;3295;38.928;-77.052;2023-07-09T14:00:30;7.80;;;4.17;;
6523;SDS011;3295;38.928;-77.052;2023-07-09T14:02:57;7.20;;;4.47;;
6523;SDS011;3295;38.928;-77.052;2023-07-09T14:05:26;7.13;;;4.20;;
6523;SDS011;3295;38.928;-77.052;2023-07-09T14:07:53;7.43;;;4.33;;
6523;SDS011;3295;38.928;-77.052;2023-07-09T14:10:21;10.90;;;4.37;;
6523;SDS011;3295;38.928;-77.052;2023-07-09T14:12:48;6.73;;;4.20;;
6523;SDS011;3295;38.928;-77.052;2023-07-09T14:15:16;6.97;;;4.30;;
6523;SDS011;3295;38.928;-77.052;2023-07-09T14:17:44;8.87;;;4.80;;
6523;SDS011;3295;38.928;-77.052;2023-07-09T14:20:12;8.07;;;4.40;;
6523;SDS011;3295;38.928;-77.052;2023-07-09T14:22:41;7.03;;;4.30;;
6523;SDS011;3295;38.928;-77.052;2023-07-09T14:25:14;8.40;;;4.70;;
6523;SDS011;3295;38.928;-77.052;2023-07-09T14:27:41;7.83;;;4.43;;
6523;SDS011;3295;38.928;-77.052;2023-07-09T14:30:09;7.73;;;4.50;;
6523;SDS011;3295;38.928;-77.052;2023-07-09T14:32:40;6.97;;;4.37;;
6523;SDS011;3295;38.928;-77.052;2023-07-09T14:35:14;7.37;;;4.47;;
6523;SDS011;3295;38.928;-77.052;2023-07-09T14:37:43;7.87;;;4.73;;
6523;SDS011;3295;38.928;-77.052;2023-07-09T14:40:11;7.20;;;4.17;;
6523;SDS011;3295;38.928;-77.052;2023-07-09T14:42:38;8.03;;;4.70;;
6523;SDS011;3295;38.928;-77.052;2023-07-09T14:45:09;9.10;;;4.93;;
6523;SDS011;3295;38.928;-77.052;2023-07-09T14:47:42;7.05;;;4.30;;
6523;SDS011;3295;38.928;-77.052;2023-07-09T14:50:10;6.50;;;4.03;;
6523;SDS011;3295;38.928;-77.052;2023-07-09T14:52:37;7.93;;;4.50;;
6523;SDS011;3295;38.928;-77.052;2023-07-09T14:55:07;6.97;;;4.10;;